Erie, MI (48133)

12:43 AM EDT on May 01, 2017 (GMT -0400)
Maplewood | | Change Station

Elev 597 ft 41.80 °N, 83.50 °W | Updated 25 seconds ago

Overcast
Overcast
54.0 °F
Feels Like 54.0 °F
N
5.0
Wind Variable Wind from East

Today
High -- | Low -- °F
--% Chance of Precip.
Yesterday
High -- | Low -- °F
Precip. -- in
Pressure 29.73 in
Visibility 1.0 miles
Clouds Overcast 300 ft
Dew Point 53 °F
Humidity 98%
Rainfall 0.00 in
Snow Depth Not available.
6:30 AM 8:32 PM
Waxing Crescent, 29% visible
METAR KDUH 010435Z AUTO 09004KT 1SM BR OVC003 12/12 A2973 RMK AO2 T01240121
Pressure 29.73 in
Visibility 1.0 miles
Clouds Overcast 300 ft
Dew Point 53 °F
Humidity 98%
Rainfall 0.00 in
Snow Depth Not available.
6:30 AM 8:32 PM
Waxing Crescent, 29% visible
METAR KDUH 010435Z AUTO 09004KT 1SM BR OVC003 12/12 A2973 RMK AO2 T01240121

Get Severe Weather Alerts

Thanks for signing up!

Be on the lookout for a verification email in your inbox.

You'll start receiving the daily forecast at 8 AM.

×

10-Day Weather Forecast

Almanac

Astronomy

May. 01, 2017 Rise Set
Actual Time
Civil Twilight
Nautical Twilight
Astronomical Twilight
Moon
Length of Visible Light
Length of Day
Tomorrow will be .
, % of the Moon is Illuminated

Today's Extremes

State Highs State Lows

Community

WunderPhotos

WunderBlog® & News

Nearby

Air Quality

  Air Quality AQ Index Pollutant
Not available.

Snow Depth

Station Depth Elevation

Earthquake Activity

City Distance Mag. Time & Date
Minimum magnitude displayed is 2.5.

Coastal Water Temperatures

Place Temperature

Stations

Nearby Weather Stations

Station Location Temp. Windchill Dew Point Humidity Wind Precip. Elev Updated Type
                   

Watches & Warnings

There are currently no watches in effect.